Weather observations for the past three days for
Lewiston, Lewiston-Nez Perce County Airport
Imperial (Metric)
Date Time (pdt) Wind (mph) Vis. (mi.) Weather Sky Cond. Temperature (ºF) Relative Humidity Wind Chill (°F) Heat Index (°F) Pressure Precipitation (in)
Air Dwpt 6 hour altimeter (in) sea level (mb) 1 hr 3 hr 6 hr
Max. Min.
06 07:56 E 8 10.00 Fair CLR 57.9 39 50% 29.97 1014.3
06 06:56 Calm 10.00 Fair CLR 54 39.9 59% 29.97 1014.3
06 05:56 Vrbl 3 10.00 Fair CLR 52 37 57% 29.95 1013.7
06 04:56 Calm 10.00 Fair CLR 52 37.9 62.1 51.1 59% 29.94 1013.2
06 03:56 Calm 10.00 Fair CLR 52 39.9 64% 29.94 1013.2
06 02:56 SE 5 10.00 Fair CLR 52 37.9 59% 29.92 1012.8
06 01:56 E 7 10.00 Fair CLR 57.9 39 50% 29.92 1012.3
06 00:56 NW 3 10.00 Fair CLR 57.9 37.9 48% 29.9 1012.1
05 23:56 S 3 10.00 Fair CLR 59 37.9 46% 29.89 1011.7
05 22:56 S 9 10.00 Fair CLR 62.1 37 79 61 40% 29.88 1011.1
05 21:56 S 7 10.00 Fair CLR 61 39 44% 29.86 1010.7
05 20:56 NW 6 10.00 Fair CLR 66.9 35.1 31% 29.85 1010.3
05 19:56 N 6 10.00 Fair CLR 70 36 29% 29.84 1009.8
05 18:56 N 10 10.00 Fair CLR 75 36 24% 76 29.83 1009.6
05 17:56 N 16 10.00 Fair CLR 77 37 24% 77 29.82 1009.4
05 16:56 N 15 G 23 10.00 Fair CLR 79 37 80.1 69.1 22% 78 29.82 1009.3
05 15:56 NW 12 G 21 10.00 Fair CLR 80.1 39 23% 79 29.83 1009.4
05 14:56 Vrbl 7 10.00 A Few Clouds FEW100 78.1 41 27% 78 29.84 1010.0
05 13:56 Vrbl 3 10.00 Fair CLR 77 41 28% 78 29.86 1010.6
05 12:56 Calm 10.00 Fair CLR 73 39 29% 29.87 1010.9
05 11:56 NW 7 10.00 Fair CLR 72 42.1 34% 29.88 1011.0
05 10:56 Calm 10.00 Fair CLR 69.1 41 69.1 51.1 36% 29.89 1011.3
05 09:56 NE 6 10.00 Fair CLR 66.9 41 39% 29.89 1011.2
05 08:56 Vrbl 5 10.00 Fair CLR 64 41 43% 29.88 1011.2
05 07:56 Calm 10.00 Fair CLR 60.1 43 53% 29.88 1011.2
05 06:56 S 3 10.00 Fair CLR 55 42.1 62% 29.87 1010.7
05 05:56 SE 5 10.00 Fair CLR 52 42.1 69% 29.85 1010.1
05 04:56 E 5 10.00 Fair CLR 54 42.1 66.9 52 64% 29.83 1009.5
05 03:56 SE 3 10.00 Fair CLR 55.9 43 62% 29.82 1008.9
05 02:56 S 6 10.00 Fair CLR 55.9 44.1 65% 29.8 1008.4
05 01:56 SE 5 10.00 Fair CLR 57 44.1 62% 29.79 1008.2
05 00:56 S 5 10.00 Fair CLR 60.1 45 58% 29.78 1007.9
04 23:56 E 7 10.00 Fair CLR 64.9 46 51% 29.77 1007.3
04 22:56 NE 10 10.00 Fair CLR 66.9 43 81 66.9 42% 29.75 1006.8
04 21:56 E 7 10.00 Fair CLR 71.1 39 31% 29.74 1006.5
04 20:56 N 8 10.00 Fair CLR 73 37.9 28% 29.72 1005.9
04 19:56 Calm 10.00 Fair CLR 75 39.9 28% 77 29.71 1005.3
04 18:56 NW 6 10.00 Fair CLR 78.1 43 29% 78 29.69 1004.9
04 17:56 W 9 10.00 Fair CLR 80.1 42.1 26% 79 29.7 1005.2
04 16:56 NW 12 10.00 Fair CLR 81 43 82 66.9 26% 80 29.71 1005.4
04 15:56 NW 12 10.00 Fair CLR 82 39 22% 80 29.71 1005.6
04 14:56 NW 12 G 21 10.00 Fair CLR 82 39.9 22% 80 29.72 1005.7
04 13:56 NW 7 10.00 Fair CLR 79 46.9 32% 79 29.74 1006.3
04 12:56 Calm 10.00 Fair CLR 75 46 36% 77 29.76 1007.0
04 11:56 Calm 10.00 Fair CLR 72 46.9 41% 29.77 1007.5
04 10:56 N 5 10.00 Fair CLR 68 45 68 48.9 44% 29.78 1008.0
04 09:56 Vrbl 6 10.00 Fair CLR 63 45 52% 29.79 1008.4
04 08:56 N 5 10.00 Fair CLR 59 44.1 58% 29.8 1008.7
04 07:56 E 6 10.00 Fair CLR 57 42.1 58% 29.81 1008.8
04 06:56 NE 6 10.00 Fair CLR 55 41 59% 29.79 1008.3
04 05:56 SE 5 10.00 Fair CLR 48.9 41 74% 48 29.79 1008.1
04 04:56 E 3 10.00 Fair CLR 53.1 41 61 51.1 64% 29.79 1007.9
04 03:56 Calm 10.00 Fair CLR 51.1 41 69% 29.8 1008.3
04 02:56 Calm 10.00 Fair CLR 55.9 41 57% 29.78 1007.8
04 01:56 Calm 10.00 Fair CLR 57.9 39.9 51% 29.78 1007.7
04 00:56 Calm 10.00 Fair CLR 57 39.9 53% 29.78 1008.0
03 23:56 SW 6 10.00 Fair CLR 61 39.9 46% 29.78 1008.0
03 22:56 S 7 10.00 Fair CLR 61 41 82 61 48% 29.78 1008.1
03 21:56 SW 9 10.00 Fair CLR 63 41 45% 29.79 1008.1
03 20:56 S 8 10.00 Fair CLR 69.1 42.1 38% 29.78 1007.9
03 19:56 Calm 10.00 Fair CLR 77 35.1 22% 77 29.77 1007.4
03 18:56 W 5 10.00 Fair CLR 78.1 37.9 24% 78 29.78 1007.7
03 17:56 NW 10 10.00 Fair CLR 81 34 18% 79 29.79 1008.3
03 16:56 NW 13 G 21 10.00 Fair CLR 82 32 82.9 66.9 16% 80 29.81 1008.8
03 15:56 N 12 10.00 Fair CLR 82 37.9 21% 80 29.83 1009.3
03 14:56 N 12 G 18 10.00 Fair CLR 82 35.1 18% 80 29.85 1009.9
03 13:56 NW 3 10.00 Fair CLR 79 39.9 25% 78 29.87 1010.8
03 12:56 Calm 10.00 Fair CLR 75 46 36% 77 29.9 1011.8
03 11:56 Calm 10.00 Fair CLR 72 45 38% 29.92 1012.6
03 10:56 Vrbl 3 10.00 Fair CLR 66.9 45 66.9 50 45% 29.94 1013.5
03 09:56 N 8 9.00 Fair CLR 64 46.9 54% 29.96 1014.1
03 08:56 Calm 10.00 Fair CLR 61 45 56% 29.97 1014.3
Date Time (pdt) Wind (mph) Vis. (mi.) Weather Sky Cond. Air Dwpt Max. Min. Relative Humidity Wind Chill (°F) Heat Index (°F) altimeter (in) sea level (mb) 1 hr 3 hr 6 hr
6 hour
Temperature (ºF) Pressure Precipitation (in)